Time;durP1;ratioP1;P1;durP2;ratioP2;P2;SDS_P1;SDS_P2;PMS_P1;PMS_P2;Temp;Humidity;BMP_temperature;BMP_pressure;BME280_temperature;BME280_humidity;BME280_pressure;Samples;Min_cycle;Max_cycle;Signal;HPM_P1;HPM_P2
2022/08/12 00:43:35;;;;;;;12.07;5.32;;;;;;;;;;4392190;32;20066;-67
2022/08/12 00:48:48;;;;;;;10.30;5.40;;;;;;;;;;4380098;32;20082;-68
2022/08/12 00:51:16;;;;;;;14.15;5.40;;;;;;;;;;4365271;32;20084;-70
2022/08/12 00:53:42;;;;;;;10.63;5.28;;;;;;;;;;4378301;32;20109;-69
2022/08/12 00:56:09;;;;;;;7.25;4.28;;;;;;;;;;4377787;32;20181;-68
2022/08/12 00:58:37;;;;;;;9.90;5.40;;;;;;;;;;4391946;32;20242;-67
2022/08/12 01:01:06;;;;;;;9.30;4.60;;;;;;;;;;4377728;32;20097;-68
2022/08/12 01:11:52;;;;;;;;;;;;;;;;;;4392083;32;20078;-68
2022/08/12 01:14:22;;;;;;;;;;;;;;;;;;4391736;32;19979;-68
2022/08/12 01:16:52;;;;;;;9.05;4.15;;;;;;;;;;4391461;32;20087;-69
2022/08/12 01:19:23;;;;;;;8.90;3.85;;;;;;;;;;4364854;32;20498;-68
2022/08/12 01:22:09;;;;;;;8.20;4.35;;;;;;;;;;4377281;32;20111;-68
2022/08/12 01:24:53;;;;;;;10.13;4.93;;;;;;;;;;4377909;32;20080;-68
2022/08/12 01:27:21;;;;;;;11.93;5.45;;;;;;;;;;4377619;32;20082;-68
2022/08/12 01:29:50;;;;;;;14.82;6.00;;;;;;;;;;4365765;32;20169;-68
2022/08/12 01:32:19;;;;;;;13.40;4.85;;;;;;;;;;4377498;32;20078;-68
2022/08/12 01:35:10;;;;;;;10.73;4.82;;;;;;;;;;4365183;32;20165;-68
2022/08/12 01:38:00;;;;;;;9.77;4.15;;;;;;;;;;4365168;32;20074;-68
2022/08/12 01:40:29;;;;;;;11.15;4.28;;;;;;;;;;4352535;32;20496;-68
2022/08/12 01:42:59;;;;;;;5.82;3.65;;;;;;;;;;4377214;32;20073;-68
2022/08/12 01:45:28;;;;;;;6.25;3.45;;;;;;;;;;4377248;32;20066;-68
2022/08/12 01:48:07;;;;;;;8.70;3.35;;;;;;;;;;4377503;32;20167;-68
2022/08/12 01:51:01;;;;;;;8.52;3.20;;;;;;;;;;4377276;32;20160;-68
2022/08/12 01:53:46;;;;;;;6.82;3.30;;;;;;;;;;4377006;32;20081;-69
2022/08/12 01:56:13;;;;;;;6.00;3.60;;;;;;;;;;4377028;32;20086;-69
2022/08/12 02:01:33;;;;;;;4.93;3.00;;;;;;;;;;4380089;32;20089;-68
2022/08/12 02:13:12;;;;;;;5.03;2.78;;;;;;;;;;4379396;32;20089;-68
2022/08/12 02:15:48;;;;;;;5.93;3.20;;;;;;;;;;4391097;32;20076;-67
2022/08/12 02:18:44;;;;;;;6.53;3.10;;;;;;;;;;4377566;32;20166;-67
2022/08/12 02:21:24;;;;;;;5.03;3.12;;;;;;;;;;4391123;32;20076;-68
2022/08/12 02:23:50;;;;;;;8.02;3.05;;;;;;;;;;4391780;32;20076;-68
2022/08/12 02:26:18;;;;;;;3.95;2.70;;;;;;;;;;4364770;32;20530;-68
2022/08/12 02:28:45;;;;;;;6.70;3.22;;;;;;;;;;4377276;32;20537;-68
2022/08/12 02:31:13;;;;;;;5.43;2.90;;;;;;;;;;4376872;32;20138;-70
2022/08/12 02:33:40;;;;;;;5.32;2.92;;;;;;;;;;4364395;32;20066;-68
2022/08/12 02:36:07;;;;;;;3.58;2.85;;;;;;;;;;4377240;32;20081;-68
2022/08/12 02:38:34;;;;;;;6.35;2.80;;;;;;;;;;4377632;32;20077;-68
2022/08/12 02:41:03;;;;;;;5.75;2.85;;;;;;;;;;4379131;32;20097;-68
2022/08/12 02:43:33;;;;;;;4.53;3.20;;;;;;;;;;4380134;32;20073;-68
2022/08/12 02:46:11;;;;;;;4.87;2.62;;;;;;;;;;4380416;32;20169;-68
2022/08/12 02:48:50;;;;;;;4.37;2.75;;;;;;;;;;4380870;32;20081;-67
2022/08/12 02:51:22;;;;;;;5.32;2.95;;;;;;;;;;4379951;32;20089;-69
2022/08/12 02:53:50;;;;;;;5.93;2.90;;;;;;;;;;4393729;32;20182;-68
2022/08/12 02:56:17;;;;;;;4.32;2.92;;;;;;;;;;4355429;32;20553;-68
2022/08/12 02:58:45;;;;;;;4.62;2.60;;;;;;;;;;4381282;32;20150;-68
2022/08/12 03:01:12;;;;;;;7.18;2.97;;;;;;;;;;4380631;32;20078;-68
2022/08/12 03:03:40;;;;;;;3.90;2.60;;;;;;;;;;4367710;32;20073;-69
2022/08/12 03:06:16;;;;;;;6.47;2.72;;;;;;;;;;4380111;32;20157;-67
2022/08/12 03:08:43;;;;;;;4.20;3.15;;;;;;;;;;4367271;32;20091;-68
2022/08/12 03:11:16;;;;;;;7.78;3.28;;;;;;;;;;4367746;32;20088;-67
2022/08/12 03:14:00;;;;;;;7.80;3.00;;;;;;;;;;4381456;32;20080;-68
2022/08/12 03:16:29;;;;;;;5.82;3.00;;;;;;;;;;4395628;32;20090;-68
2022/08/12 03:18:56;;;;;;;6.82;3.00;;;;;;;;;;4381148;32;20082;-68
2022/08/12 03:21:26;;;;;;;5.45;3.35;;;;;;;;;;4380935;32;20441;-67
2022/08/12 03:23:54;;;;;;;4.65;3.03;;;;;;;;;;4380277;32;20077;-68
2022/08/12 03:26:23;;;;;;;6.32;3.10;;;;;;;;;;4393960;32;20089;-68
2022/08/12 03:28:52;;;;;;;5.53;3.42;;;;;;;;;;4380250;32;20529;-69
2022/08/12 03:31:28;;;;;;;4.87;2.97;;;;;;;;;;4379169;32;20089;-68
2022/08/12 03:34:09;;;;;;;7.28;3.03;;;;;;;;;;4379471;32;20089;-68
2022/08/12 03:36:37;;;;;;;6.53;3.08;;;;;;;;;;4379888;32;20081;-68
2022/08/12 03:42:10;;;;;;;4.22;2.80;;;;;;;;;;4393236;32;20077;-68
2022/08/12 04:01:56;;;;;;;6.10;3.05;;;;;;;;;;4421676;32;20081;-72
2022/08/12 04:04:33;;;;;;;5.05;3.12;;;;;;;;;;4421565;32;20087;-68
2022/08/12 04:07:11;;;;;;;10.32;3.08;;;;;;;;;;4407335;32;20587;-69
2022/08/12 04:09:42;;;;;;;5.47;2.65;;;;;;;;;;4396228;32;20135;-67
2022/08/12 04:14:57;;;;;;;5.93;2.75;;;;;;;;;;4408341;32;20511;-69
2022/08/12 04:17:26;;;;;;;5.82;3.22;;;;;;;;;;4407915;32;20592;-68
2022/08/12 04:19:55;;;;;;;4.90;2.70;;;;;;;;;;4405330;32;20104;-68
2022/08/12 04:22:28;;;;;;;7.22;3.15;;;;;;;;;;4404243;32;20085;-68
2022/08/12 04:24:58;;;;;;;6.07;2.97;;;;;;;;;;4405612;32;20141;-70
2022/08/12 04:27:24;;;;;;;3.47;2.60;;;;;;;;;;4407389;32;20085;-68
2022/08/12 04:29:51;;;;;;;4.82;2.90;;;;;;;;;;4414310;32;20142;-69
2022/08/12 04:32:18;;;;;;;5.80;2.87;;;;;;;;;;4414089;32;20150;-69
2022/08/12 04:34:45;;;;;;;5.85;2.70;;;;;;;;;;4413540;32;20084;-69
2022/08/12 04:37:12;;;;;;;4.10;2.58;;;;;;;;;;4393953;32;20070;-69
2022/08/12 04:39:39;;;;;;;5.65;2.95;;;;;;;;;;4410570;32;20158;-68
2022/08/12 04:42:06;;;;;;;4.85;3.00;;;;;;;;;;4384380;32;20148;-69
2022/08/12 04:44:33;;;;;;;8.98;3.42;;;;;;;;;;4406832;32;20100;-68
2022/08/12 04:46:59;;;;;;;7.00;2.90;;;;;;;;;;4404885;32;20076;-68
2022/08/12 04:49:27;;;;;;;3.67;2.72;;;;;;;;;;4391606;32;20169;-68
2022/08/12 04:51:55;;;;;;;6.68;3.20;;;;;;;;;;4405470;32;20583;-70
2022/08/12 04:54:23;;;;;;;7.43;3.28;;;;;;;;;;4417292;32;20069;-67
2022/08/12 04:56:52;;;;;;;3.50;2.60;;;;;;;;;;4410331;32;20149;-68
2022/08/12 04:59:19;;;;;;;4.30;2.87;;;;;;;;;;4404073;32;20102;-67
2022/08/12 05:01:52;;;;;;;5.25;2.95;;;;;;;;;;4393124;32;20081;-68
2022/08/12 05:04:24;;;;;;;6.03;3.25;;;;;;;;;;4393344;32;20166;-68
2022/08/12 05:06:51;;;;;;;5.05;2.90;;;;;;;;;;4392673;32;20129;-68
2022/08/12 05:09:18;;;;;;;7.05;3.42;;;;;;;;;;4379561;32;20162;-68
2022/08/12 05:11:48;;;;;;;5.85;3.20;;;;;;;;;;4392697;32;20077;-69
2022/08/12 05:14:15;;;;;;;4.60;3.10;;;;;;;;;;4392737;32;20180;-67
2022/08/12 05:16:42;;;;;;;4.18;2.53;;;;;;;;;;4393767;32;20074;-68
2022/08/12 05:19:09;;;;;;;5.35;3.10;;;;;;;;;;4380024;32;20500;-68
2022/08/12 05:21:36;;;;;;;8.40;3.10;;;;;;;;;;4393583;32;20081;-68
2022/08/12 05:24:03;;;;;;;8.40;3.05;;;;;;;;;;4393572;32;20082;-68
2022/08/12 05:26:29;;;;;;;4.80;3.00;;;;;;;;;;4392233;32;20090;-68
2022/08/12 05:28:56;;;;;;;5.95;3.30;;;;;;;;;;4393207;32;20070;-68
2022/08/12 05:31:22;;;;;;;5.12;3.08;;;;;;;;;;4392069;32;20081;-68
2022/08/12 05:33:49;;;;;;;4.03;2.87;;;;;;;;;;4393183;32;20073;-69
2022/08/12 05:36:18;;;;;;;6.00;3.05;;;;;;;;;;4392131;32;20097;-66
2022/08/12 05:38:55;;;;;;;8.48;4.35;;;;;;;;;;4391872;32;20082;-69
2022/08/12 05:41:23;;;;;;;11.73;5.05;;;;;;;;;;4393501;32;20074;-68
2022/08/12 05:43:55;;;;;;;8.68;4.60;;;;;;;;;;4392181;32;20088;-68
2022/08/12 05:46:22;;;;;;;8.00;5.10;;;;;;;;;;4392111;32;20080;-66
2022/08/12 05:48:51;;;;;;;11.15;5.40;;;;;;;;;;4391210;32;20515;-69
2022/08/12 05:51:17;;;;;;;8.10;5.10;;;;;;;;;;4392122;32;20074;-67
2022/08/12 05:53:44;;;;;;;11.93;6.80;;;;;;;;;;4379337;32;20076;-68
2022/08/12 05:56:25;;;;;;;13.30;5.85;;;;;;;;;;4393119;32;20512;-68
2022/08/12 05:58:53;;;;;;;11.95;5.53;;;;;;;;;;4391962;32;20078;-67
2022/08/12 06:01:21;;;;;;;5.60;3.05;;;;;;;;;;4391980;32;20599;-68
2022/08/12 06:03:48;;;;;;;5.07;3.10;;;;;;;;;;4391572;32;20131;-68
2022/08/12 06:06:16;;;;;;;5.05;2.45;;;;;;;;;;4391731;32;20538;-68
2022/08/12 06:08:47;;;;;;;4.18;2.80;;;;;;;;;;4366250;32;20093;-67
2022/08/12 06:11:17;;;;;;;2.97;2.30;;;;;;;;;;4391748;32;20077;-67
2022/08/12 06:13:44;;;;;;;3.62;2.53;;;;;;;;;;4390182;32;20100;-67
2022/08/12 06:16:13;;;;;;;3.20;2.50;;;;;;;;;;4378594;32;20078;-68
2022/08/12 06:18:40;;;;;;;4.00;2.35;;;;;;;;;;4390613;32;20536;-67
2022/08/12 06:21:15;;;;;;;3.15;2.30;;;;;;;;;;4379067;32;20154;-68
2022/08/12 06:23:42;;;;;;;7.28;3.17;;;;;;;;;;4378700;32;20076;-67
2022/08/12 06:26:11;;;;;;;4.65;2.90;;;;;;;;;;4379076;32;20178;-68
2022/08/12 06:28:42;;;;;;;4.03;2.60;;;;;;;;;;4391277;32;20150;-69
2022/08/12 06:31:14;;;;;;;7.22;3.28;;;;;;;;;;4366506;32;20166;-68
2022/08/12 06:33:43;;;;;;;4.32;2.92;;;;;;;;;;4391360;32;20150;-66
2022/08/12 06:36:15;;;;;;;4.10;2.70;;;;;;;;;;4392338;32;20078;-68
2022/08/12 06:38:43;;;;;;;4.03;2.22;;;;;;;;;;4365784;32;20066;-67
2022/08/12 06:43:56;;;;;;;3.50;2.65;;;;;;;;;;4391514;32;20093;-68
2022/08/12 06:46:25;;;;;;;5.22;2.58;;;;;;;;;;4378253;32;20078;-66
2022/08/12 06:48:56;;;;;;;4.82;2.53;;;;;;;;;;4390976;32;20086;-66
2022/08/12 06:51:27;;;;;;;3.80;2.50;;;;;;;;;;4390795;32;20145;-68
2022/08/12 06:53:54;;;;;;;3.15;2.20;;;;;;;;;;4390362;32;20070;-67
2022/08/12 06:56:22;;;;;;;11.88;3.87;;;;;;;;;;4390727;32;20520;-68
2022/08/12 06:58:48;;;;;;;5.75;3.72;;;;;;;;;;4390609;32;20090;-66
2022/08/12 07:01:17;;;;;;;3.28;2.55;;;;;;;;;;4390564;32;20062;-67
2022/08/12 07:03:43;;;;;;;4.30;2.50;;;;;;;;;;4391735;32;20093;-66
2022/08/12 07:06:12;;;;;;;4.78;2.75;;;;;;;;;;4390150;32;20097;-66
2022/08/12 07:08:41;;;;;;;3.70;2.50;;;;;;;;;;4390057;32;20100;-68
2022/08/12 07:11:10;;;;;;;2.92;2.30;;;;;;;;;;4377690;32;20097;-67
2022/08/12 07:13:43;;;;;;;3.87;2.70;;;;;;;;;;4391884;32;20077;-67
2022/08/12 07:16:50;;;;;;;3.47;2.65;;;;;;;;;;4391149;32;20144;-68
2022/08/12 07:19:15;;;;;;;4.55;2.70;;;;;;;;;;4390555;32;20445;-67
2022/08/12 07:21:42;;;;;;;2.75;2.30;;;;;;;;;;4390828;32;20096;-67
2022/08/12 07:24:09;;;;;;;4.35;2.50;;;;;;;;;;4377333;32;20174;-67
2022/08/12 07:26:39;;;;;;;3.03;2.10;;;;;;;;;;4391450;32;20189;-67
2022/08/12 07:29:08;;;;;;;4.15;2.50;;;;;;;;;;4378123;32;20070;-67
2022/08/12 07:31:36;;;;;;;5.30;2.20;;;;;;;;;;4392024;32;20096;-68
2022/08/12 07:34:04;;;;;;;6.50;2.33;;;;;;;;;;4390222;32;20076;-68
2022/08/12 07:36:32;;;;;;;3.03;2.30;;;;;;;;;;4377964;32;20084;-66
2022/08/12 07:38:59;;;;;;;3.62;2.40;;;;;;;;;;4377288;32;20109;-68
2022/08/12 07:41:31;;;;;;;3.35;2.47;;;;;;;;;;4390208;32;20066;-66
2022/08/12 07:44:03;;;;;;;5.90;2.62;;;;;;;;;;4390805;32;20074;-67
2022/08/12 07:46:36;;;;;;;6.05;2.50;;;;;;;;;;4365144;32;20082;-70
2022/08/12 07:49:17;;;;;;;4.00;2.75;;;;;;;;;;4389526;32;20093;-67
2022/08/12 07:51:44;;;;;;;4.32;2.53;;;;;;;;;;4391629;32;20184;-66
2022/08/12 07:54:12;;;;;;;6.18;2.42;;;;;;;;;;4391005;32;20077;-68
2022/08/12 07:56:40;;;;;;;4.97;2.37;;;;;;;;;;4365144;32;20077;-68
2022/08/12 07:59:08;;;;;;;5.55;2.40;;;;;;;;;;4389956;32;20085;-68
2022/08/12 08:01:36;;;;;;;4.97;2.50;;;;;;;;;;4365375;32;20161;-66
2022/08/12 08:06:50;;;;;;;3.97;2.40;;;;;;;;;;4379895;32;20089;-68
2022/08/12 08:09:20;;;;;;;3.92;2.45;;;;;;;;;;4378491;32;20069;-67
2022/08/12 08:14:32;;;;;;;4.03;2.47;;;;;;;;;;4392385;32;20126;-66
2022/08/12 08:17:02;;;;;;;5.15;2.80;;;;;;;;;;4365266;32;20085;-67
2022/08/12 08:19:29;;;;;;;5.30;2.58;;;;;;;;;;4390296;32;20113;-66
2022/08/12 08:21:57;;;;;;;6.03;2.90;;;;;;;;;;4380376;32;20084;-68
2022/08/12 08:24:26;;;;;;;3.58;2.60;;;;;;;;;;4391171;32;20081;-66
2022/08/12 08:26:55;;;;;;;3.10;2.50;;;;;;;;;;4391377;32;20070;-68
2022/08/12 08:29:23;;;;;;;5.12;2.50;;;;;;;;;;4364306;32;20456;-68
2022/08/12 08:31:53;;;;;;;4.12;2.55;;;;;;;;;;4389612;32;20092;-68
2022/08/12 08:34:20;;;;;;;4.30;2.58;;;;;;;;;;4377991;32;20170;-67
2022/08/12 08:36:48;;;;;;;4.20;2.70;;;;;;;;;;4366784;32;20500;-67
2022/08/12 08:39:15;;;;;;;3.50;2.47;;;;;;;;;;4393609;32;20467;-68
2022/08/12 08:44:27;;;;;;;3.17;2.50;;;;;;;;;;4394112;32;20105;-66
2022/08/12 08:46:54;;;;;;;3.62;2.53;;;;;;;;;;4393781;32;20190;-69
2022/08/12 08:49:22;;;;;;;4.95;2.80;;;;;;;;;;4391955;32;20097;-67
2022/08/12 08:51:48;;;;;;;5.03;2.72;;;;;;;;;;4392453;32;20069;-68
2022/08/12 08:54:15;;;;;;;3.55;2.58;;;;;;;;;;4379578;32;20158;-68
2022/08/12 08:56:43;;;;;;;6.05;2.75;;;;;;;;;;4379310;32;20084;-68
2022/08/12 08:59:11;;;;;;;4.53;3.00;;;;;;;;;;4392355;32;20086;-68
2022/08/12 09:01:39;;;;;;;5.82;2.65;;;;;;;;;;4391612;32;20170;-68
2022/08/12 09:04:06;;;;;;;4.07;2.85;;;;;;;;;;4392062;32;20516;-68
2022/08/12 09:06:32;;;;;;;3.80;2.70;;;;;;;;;;4379386;32;20595;-68
2022/08/12 09:08:59;;;;;;;4.80;2.53;;;;;;;;;;4391693;32;20078;-67
2022/08/12 09:14:12;;;;;;;5.10;2.80;;;;;;;;;;4391726;32;20157;-68
2022/08/12 09:16:39;;;;;;;4.47;2.78;;;;;;;;;;4392451;32;20081;-67
2022/08/12 09:19:12;;;;;;;5.00;2.60;;;;;;;;;;4392405;32;20081;-68
2022/08/12 09:21:41;;;;;;;5.35;2.70;;;;;;;;;;4392230;32;20162;-70
2022/08/12 09:24:08;;;;;;;3.58;2.30;;;;;;;;;;4391832;32;20062;-68
2022/08/12 09:26:37;;;;;;;4.20;2.78;;;;;;;;;;4391686;32;20085;-67
2022/08/12 09:29:04;;;;;;;5.47;3.00;;;;;;;;;;4391420;32;20151;-68
2022/08/12 09:31:33;;;;;;;4.50;2.87;;;;;;;;;;4378854;32;20145;-66
2022/08/12 09:34:03;;;;;;;3.50;2.55;;;;;;;;;;4392324;32;20150;-68
2022/08/12 09:36:33;;;;;;;6.55;2.78;;;;;;;;;;4391954;32;20150;-67
2022/08/12 09:39:01;;;;;;;3.62;2.65;;;;;;;;;;4379085;32;20097;-68
2022/08/12 09:41:28;;;;;;;3.65;2.60;;;;;;;;;;4391280;32;20089;-68
2022/08/12 09:46:40;;;;;;;3.80;2.60;;;;;;;;;;4392990;32;20073;-68
2022/08/12 09:49:08;;;;;;;3.90;2.60;;;;;;;;;;4392761;32;20503;-68
2022/08/12 09:51:35;;;;;;;3.60;2.60;;;;;;;;;;4378724;32;20088;-68
2022/08/12 09:54:02;;;;;;;3.12;2.40;;;;;;;;;;4391369;32;20520;-68
2022/08/12 09:56:31;;;;;;;4.37;2.70;;;;;;;;;;4366392;32;20475;-68
2022/08/12 09:58:58;;;;;;;4.85;3.08;;;;;;;;;;4392724;32;20157;-68
2022/08/12 10:01:24;;;;;;;3.95;2.67;;;;;;;;;;4378631;32;20089;-68
2022/08/12 10:03:51;;;;;;;5.15;2.72;;;;;;;;;;4379159;32;20070;-67
2022/08/12 10:06:18;;;;;;;4.22;2.50;;;;;;;;;;4391058;32;20085;-67
2022/08/12 10:08:44;;;;;;;5.12;2.85;;;;;;;;;;4378541;32;20069;-67
2022/08/12 10:13:56;;;;;;;3.87;2.63;;;;;;;;;;4391537;32;20069;-68
2022/08/12 10:16:31;;;;;;;4.72;2.80;;;;;;;;;;4378298;32;20077;-68
2022/08/12 10:19:00;;;;;;;5.55;2.95;;;;;;;;;;4378709;32;20078;-68
2022/08/12 10:21:35;;;;;;;4.87;2.53;;;;;;;;;;4378555;32;20603;-67
2022/08/12 10:24:04;;;;;;;3.78;2.70;;;;;;;;;;4391309;32;20157;-68
2022/08/12 10:29:35;;;;;;;4.22;2.60;;;;;;;;;;4391118;32;20463;-68
2022/08/12 10:32:14;;;;;;;2.80;2.50;;;;;;;;;;4378428;32;20464;-67
2022/08/12 10:34:41;;;;;;;2.72;2.22;;;;;;;;;;4365921;32;20520;-68
2022/08/12 10:37:08;;;;;;;2.85;2.22;;;;;;;;;;4378435;32;20105;-67
2022/08/12 10:39:38;;;;;;;4.62;2.17;;;;;;;;;;4390914;32;20523;-67
2022/08/12 10:44:59;;;;;;;3.67;2.35;;;;;;;;;;4380182;32;20066;-68
2022/08/12 10:47:34;;;;;;;4.65;2.60;;;;;;;;;;4390496;32;20100;-67
2022/08/12 10:50:02;;;;;;;2.65;1.85;;;;;;;;;;4365339;32;20592;-67
2022/08/12 10:52:29;;;;;;;4.47;2.75;;;;;;;;;;4366952;32;20435;-68
2022/08/12 10:54:57;;;;;;;6.18;2.67;;;;;;;;;;4365770;32;20093;-68
2022/08/12 10:57:25;;;;;;;3.42;2.50;;;;;;;;;;4390763;32;20089;-68
2022/08/12 10:59:59;;;;;;;2.47;2.28;;;;;;;;;;4377998;32;20094;-68
2022/08/12 11:02:27;;;;;;;3.22;2.33;;;;;;;;;;4396957;32;20495;-69
2022/08/12 11:04:58;;;;;;;5.47;2.50;;;;;;;;;;4367227;32;20104;-68
2022/08/12 11:07:26;;;;;;;7.65;2.95;;;;;;;;;;4390827;32;20107;-67
2022/08/12 11:09:53;;;;;;;4.80;2.53;;;;;;;;;;4390193;32;20128;-68
2022/08/12 11:12:20;;;;;;;2.70;2.30;;;;;;;;;;4390636;32;20089;-68
2022/08/12 11:14:47;;;;;;;3.80;2.50;;;;;;;;;;4377836;32;20083;-69
2022/08/12 11:17:14;;;;;;;3.85;2.53;;;;;;;;;;4391552;32;20086;-67
2022/08/12 11:19:42;;;;;;;3.92;2.70;;;;;;;;;;4365230;32;20087;-68
2022/08/12 11:22:10;;;;;;;3.33;2.45;;;;;;;;;;4390102;32;20482;-67
2022/08/12 11:24:37;;;;;;;4.15;2.55;;;;;;;;;;4377823;32;20098;-67
2022/08/12 11:27:05;;;;;;;2.45;1.90;;;;;;;;;;4390488;32;20074;-67
2022/08/12 11:29:33;;;;;;;4.70;2.30;;;;;;;;;;4390082;32;20081;-67
2022/08/12 11:31:59;;;;;;;3.28;2.40;;;;;;;;;;4390193;32;20150;-68
2022/08/12 11:34:26;;;;;;;4.35;2.45;;;;;;;;;;4377564;32;20158;-67
2022/08/12 11:36:55;;;;;;;3.78;2.40;;;;;;;;;;4389748;32;20176;-69
2022/08/12 11:39:22;;;;;;;2.62;2.30;;;;;;;;;;4377117;32;20523;-68
2022/08/12 11:41:48;;;;;;;3.70;2.30;;;;;;;;;;4390488;32;20164;-68
2022/08/12 11:44:15;;;;;;;3.30;2.42;;;;;;;;;;4390075;32;20539;-68
2022/08/12 11:46:43;;;;;;;5.90;2.87;;;;;;;;;;4391286;32;20070;-68
2022/08/12 11:49:10;;;;;;;4.68;2.58;;;;;;;;;;4391410;32;20181;-67
2022/08/12 11:51:37;;;;;;;3.87;2.30;;;;;;;;;;4391426;32;20074;-68
2022/08/12 11:54:05;;;;;;;3.22;2.40;;;;;;;;;;4390359;32;20149;-67
2022/08/12 11:56:31;;;;;;;3.55;2.30;;;;;;;;;;4389996;32;20082;-68
2022/08/12 11:58:58;;;;;;;4.03;2.33;;;;;;;;;;4390428;32;20081;-68
2022/08/12 12:01:25;;;;;;;3.87;2.53;;;;;;;;;;4390101;32;20069;-68
2022/08/12 12:03:52;;;;;;;4.07;2.53;;;;;;;;;;4391084;32;20147;-68
2022/08/12 12:06:22;;;;;;;2.40;2.20;;;;;;;;;;4389822;32;20074;-68
2022/08/12 12:08:49;;;;;;;3.50;2.50;;;;;;;;;;4391342;32;20158;-66
2022/08/12 12:11:16;;;;;;;3.67;2.40;;;;;;;;;;4392732;32;20517;-68
2022/08/12 12:13:43;;;;;;;4.25;2.60;;;;;;;;;;4380538;32;20089;-68
2022/08/12 12:16:09;;;;;;;2.85;2.40;;;;;;;;;;4380248;32;20542;-68
2022/08/12 12:18:36;;;;;;;3.58;2.60;;;;;;;;;;4393387;32;20488;-68
2022/08/12 12:21:08;;;;;;;4.05;2.53;;;;;;;;;;4392744;32;20148;-68
2022/08/12 12:23:35;;;;;;;2.40;2.20;;;;;;;;;;4381047;32;20084;-68
2022/08/12 12:26:03;;;;;;;3.17;2.42;;;;;;;;;;4394103;32;20074;-68
2022/08/12 12:28:30;;;;;;;3.37;2.35;;;;;;;;;;4380185;32;20084;-68
2022/08/12 12:30:56;;;;;;;3.47;2.50;;;;;;;;;;4394096;32;20096;-67
2022/08/12 12:33:23;;;;;;;3.28;2.40;;;;;;;;;;4367908;32;20097;-67
2022/08/12 12:35:49;;;;;;;3.65;2.58;;;;;;;;;;4380095;32;20163;-68
2022/08/12 12:38:16;;;;;;;3.50;2.67;;;;;;;;;;4392472;32;20149;-68
2022/08/12 12:40:45;;;;;;;3.47;2.47;;;;;;;;;;4392327;32;20148;-68
2022/08/12 12:43:13;;;;;;;2.80;2.53;;;;;;;;;;4392617;32;20088;-68
2022/08/12 12:45:40;;;;;;;3.67;2.40;;;;;;;;;;4393948;32;20074;-69
2022/08/12 12:48:09;;;;;;;3.65;2.60;;;;;;;;;;4392004;32;20208;-68
2022/08/12 12:50:38;;;;;;;4.28;2.40;;;;;;;;;;4379884;32;20504;-68
2022/08/12 12:53:05;;;;;;;5.70;2.55;;;;;;;;;;4392578;32;20076;-68
2022/08/12 12:55:36;;;;;;;5.53;2.80;;;;;;;;;;4392242;32;20093;-68
2022/08/12 12:58:10;;;;;;;5.37;2.78;;;;;;;;;;4393716;32;20090;-67
2022/08/12 13:00:43;;;;;;;3.92;2.60;;;;;;;;;;4393358;32;20070;-68
2022/08/12 13:03:11;;;;;;;3.03;2.42;;;;;;;;;;4379586;32;20085;-68
2022/08/12 13:05:42;;;;;;;3.50;2.58;;;;;;;;;;4392146;32;20499;-68
2022/08/12 13:08:26;;;;;;;3.08;2.45;;;;;;;;;;4367902;32;20070;-68
2022/08/12 13:10:54;;;;;;;3.70;2.53;;;;;;;;;;4379760;32;20074;-68
2022/08/12 13:13:22;;;;;;;3.83;2.28;;;;;;;;;;4379455;32;20113;-68
2022/08/12 13:15:50;;;;;;;3.37;2.20;;;;;;;;;;4391625;32;20144;-68
2022/08/12 13:18:17;;;;;;;3.62;2.70;;;;;;;;;;4391848;32;20079;-68
2022/08/12 13:20:45;;;;;;;3.67;2.62;;;;;;;;;;4379677;32;20081;-68
2022/08/12 13:23:15;;;;;;;4.93;2.90;;;;;;;;;;4391846;32;20098;-68
2022/08/12 13:25:41;;;;;;;4.72;2.60;;;;;;;;;;4379772;32;20089;-67
2022/08/12 13:28:20;;;;;;;2.50;2.30;;;;;;;;;;4393467;32;20074;-69
2022/08/12 13:30:48;;;;;;;3.72;2.95;;;;;;;;;;4392254;32;20073;-68
2022/08/12 13:33:15;;;;;;;4.30;2.67;;;;;;;;;;4391592;32;20077;-66
2022/08/12 13:35:42;;;;;;;3.12;2.47;;;;;;;;;;4368684;32;20089;-68
2022/08/12 13:38:09;;;;;;;4.25;2.70;;;;;;;;;;4397392;32;20082;-68
2022/08/12 13:40:38;;;;;;;4.18;2.90;;;;;;;;;;4393206;32;20549;-68
2022/08/12 13:43:05;;;;;;;3.92;2.95;;;;;;;;;;4379296;32;20149;-68
2022/08/12 13:45:33;;;;;;;5.35;3.00;;;;;;;;;;4391685;32;20500;-68
2022/08/12 13:48:04;;;;;;;5.05;3.05;;;;;;;;;;4378829;32;20089;-68
2022/08/12 13:50:36;;;;;;;5.85;3.03;;;;;;;;;;4391195;32;20101;-67
2022/08/12 13:53:10;;;;;;;3.50;2.80;;;;;;;;;;4366560;32;20468;-68
2022/08/12 13:55:39;;;;;;;7.60;3.17;;;;;;;;;;4391430;32;20129;-68
2022/08/12 13:58:06;;;;;;;3.72;2.97;;;;;;;;;;4392845;32;20085;-68
2022/08/12 14:00:34;;;;;;;5.97;2.70;;;;;;;;;;4378956;32;20074;-68
2022/08/12 14:03:01;;;;;;;5.57;3.10;;;;;;;;;;4391024;32;20074;-68
2022/08/12 14:05:28;;;;;;;4.20;2.50;;;;;;;;;;4393047;32;20073;-68
2022/08/12 14:08:04;;;;;;;6.10;3.33;;;;;;;;;;4378865;32;20116;-68
2022/08/12 14:10:36;;;;;;;3.78;3.03;;;;;;;;;;4378764;32;20070;-67
2022/08/12 14:13:10;;;;;;;5.78;2.90;;;;;;;;;;4391354;32;20440;-68
2022/08/12 14:15:40;;;;;;;6.35;3.25;;;;;;;;;;4392747;32;20081;-68
2022/08/12 14:18:08;;;;;;;4.45;2.80;;;;;;;;;;4391360;32;20073;-68
2022/08/12 14:20:35;;;;;;;4.32;2.70;;;;;;;;;;4390926;32;20455;-69
2022/08/12 14:23:02;;;;;;;4.45;2.90;;;;;;;;;;4390979;32;20164;-68
2022/08/12 14:25:30;;;;;;;4.47;2.80;;;;;;;;;;4390743;32;20080;-67
2022/08/12 14:28:15;;;;;;;5.65;3.25;;;;;;;;;;4392317;32;20195;-68
2022/08/12 14:30:57;;;;;;;4.97;3.17;;;;;;;;;;4379401;32;20153;-68
2022/08/12 14:33:32;;;;;;;5.93;2.80;;;;;;;;;;4391845;32;20496;-68
2022/08/12 14:36:00;;;;;;;7.65;3.53;;;;;;;;;;4392133;32;20085;-67
2022/08/12 14:38:28;;;;;;;6.03;3.00;;;;;;;;;;4390570;32;20077;-67
2022/08/12 14:41:00;;;;;;;5.30;3.10;;;;;;;;;;4391072;32;20093;-67
2022/08/12 14:43:32;;;;;;;4.00;3.05;;;;;;;;;;4390727;32;20279;-68
2022/08/12 14:46:01;;;;;;;4.80;3.47;;;;;;;;;;4378587;32;20165;-67
2022/08/12 14:48:31;;;;;;;6.00;3.28;;;;;;;;;;4390316;32;20082;-68
2022/08/12 14:50:58;;;;;;;6.68;3.40;;;;;;;;;;4390822;32;20181;-68
2022/08/12 14:53:28;;;;;;;5.20;3.53;;;;;;;;;;4392524;32;20154;-68
2022/08/12 14:55:55;;;;;;;5.05;3.20;;;;;;;;;;4390755;32;20503;-67
2022/08/12 14:58:21;;;;;;;7.55;3.28;;;;;;;;;;4390856;32;20092;-67
2022/08/12 15:03:34;;;;;;;5.60;3.23;;;;;;;;;;4390072;32;20467;-68
2022/08/12 15:06:04;;;;;;;5.07;3.08;;;;;;;;;;4390113;32;20252;-67
2022/08/12 15:08:33;;;;;;;7.47;3.37;;;;;;;;;;4390169;32;20520;-68
2022/08/12 15:11:01;;;;;;;8.50;3.40;;;;;;;;;;4377912;32;20089;-67
2022/08/12 15:13:33;;;;;;;5.30;3.65;;;;;;;;;;4391575;32;20077;-68
2022/08/12 15:16:01;;;;;;;9.57;3.67;;;;;;;;;;4391733;32;20169;-67
2022/08/12 15:18:29;;;;;;;4.00;3.03;;;;;;;;;;4390606;32;20174;-67
2022/08/12 15:20:57;;;;;;;5.40;3.53;;;;;;;;;;4378146;32;20081;-67
2022/08/12 15:23:25;;;;;;;9.05;3.40;;;;;;;;;;4390354;32;20085;-67
2022/08/12 15:25:53;;;;;;;5.12;3.00;;;;;;;;;;4390328;32;20089;-67
2022/08/12 15:28:22;;;;;;;5.75;3.70;;;;;;;;;;4377436;32;20137;-69
2022/08/12 15:30:52;;;;;;;6.12;3.50;;;;;;;;;;4390314;32;20078;-67
2022/08/12 15:33:19;;;;;;;4.45;2.97;;;;;;;;;;4390091;32;20082;-67
2022/08/12 15:35:47;;;;;;;7.75;3.05;;;;;;;;;;4377564;32;20073;-68
2022/08/12 15:38:15;;;;;;;7.43;3.60;;;;;;;;;;4390770;32;20500;-68
2022/08/12 15:40:45;;;;;;;4.65;3.40;;;;;;;;;;4377391;32;20062;-67
2022/08/12 15:43:14;;;;;;;4.72;3.00;;;;;;;;;;4389912;32;20073;-68
2022/08/12 15:45:42;;;;;;;9.60;3.87;;;;;;;;;;4365578;32;20186;-68
2022/08/12 15:48:09;;;;;;;7.57;4.57;;;;;;;;;;4390213;32;20526;-66
2022/08/12 15:50:37;;;;;;;5.40;3.22;;;;;;;;;;4389729;32;20533;-67
2022/08/12 15:53:06;;;;;;;7.93;3.60;;;;;;;;;;4390275;32;20170;-68
2022/08/12 15:55:33;;;;;;;5.97;3.53;;;;;;;;;;4390950;32;20154;-68
2022/08/12 15:58:00;;;;;;;5.87;3.25;;;;;;;;;;4377613;32;20171;-67
2022/08/12 16:00:34;;;;;;;8.30;3.62;;;;;;;;;;4390033;32;20138;-67
2022/08/12 16:03:08;;;;;;;6.32;3.58;;;;;;;;;;4389880;32;20085;-67
2022/08/12 16:05:41;;;;;;;7.28;4.00;;;;;;;;;;4389913;32;20066;-67
2022/08/12 16:08:09;;;;;;;7.05;3.85;;;;;;;;;;4390164;32;20163;-67
2022/08/12 16:10:38;;;;;;;6.28;4.12;;;;;;;;;;4396382;32;20066;-68
2022/08/12 16:13:14;;;;;;;7.68;4.57;;;;;;;;;;4395656;32;20085;-68
2022/08/12 16:15:41;;;;;;;;;;;;;;;;;;4391641;32;20155;-68
2022/08/12 16:18:07;;;;;;;5.55;3.97;;;;;;;;;;4391011;32;19966;-67
2022/08/12 16:20:34;;;;;;;8.48;3.50;;;;;;;;;;4389555;32;20174;-68
2022/08/12 16:23:04;;;;;;;6.37;4.20;;;;;;;;;;4391305;32;20085;-67
2022/08/12 16:25:30;;;;;;;6.07;3.42;;;;;;;;;;4377141;32;20096;-68
2022/08/12 16:27:58;;;;;;;6.85;3.50;;;;;;;;;;4389557;32;20077;-67
2022/08/12 16:30:29;;;;;;;6.40;3.25;;;;;;;;;;4377131;32;20535;-67
2022/08/12 16:32:57;;;;;;;5.40;3.50;;;;;;;;;;4389580;32;20167;-68
2022/08/12 16:35:24;;;;;;;5.00;3.50;;;;;;;;;;4390975;32;20081;-67
2022/08/12 16:37:52;;;;;;;5.28;3.50;;;;;;;;;;4377596;32;20175;-67
2022/08/12 16:40:19;;;;;;;5.62;3.53;;;;;;;;;;4390917;32;20468;-67
2022/08/12 16:42:46;;;;;;;5.55;3.78;;;;;;;;;;4377672;32;20070;-68
2022/08/12 16:45:13;;;;;;;5.72;3.40;;;;;;;;;;4389783;32;20170;-67
2022/08/12 16:47:44;;;;;;;7.35;4.10;;;;;;;;;;4389788;32;20081;-68
2022/08/12 16:50:14;;;;;;;6.50;3.62;;;;;;;;;;4365289;32;20511;-67
2022/08/12 16:52:46;;;;;;;5.90;3.87;;;;;;;;;;4389534;32;20441;-66